createdAt,value
2022-10-14T00:03:00.545Z,10.70
2022-10-14T00:06:06.625Z,10.85
2022-10-14T00:09:10.905Z,10.89
2022-10-14T00:12:15.244Z,10.89
2022-10-14T00:15:18.343Z,10.99
2022-10-14T00:18:21.858Z,11.06
2022-10-14T00:21:26.886Z,11.13
2022-10-14T00:24:29.847Z,11.11
2022-10-14T00:27:34.073Z,11.12
2022-10-14T00:30:38.479Z,11.21
2022-10-14T00:33:41.411Z,11.23
2022-10-14T00:36:44.612Z,11.22
2022-10-14T00:39:56.105Z,11.24
2022-10-14T00:43:01.978Z,11.21
2022-10-14T00:46:04.949Z,11.20
2022-10-14T00:49:13.000Z,11.26
2022-10-14T00:52:18.853Z,11.34
2022-10-14T00:55:21.902Z,11.25
2022-10-14T00:58:26.353Z,11.19
2022-10-14T01:01:29.272Z,11.12
2022-10-14T01:04:32.678Z,11.27
2022-10-14T01:07:45.341Z,11.34
2022-10-14T01:10:56.305Z,11.38
2022-10-14T01:14:08.720Z,11.42
2022-10-14T01:17:17.972Z,11.47
2022-10-14T01:20:42.655Z,11.42
2022-10-14T01:24:16.492Z,11.46
2022-10-14T01:27:51.947Z,11.49
2022-10-14T01:31:03.005Z,11.45
2022-10-14T01:34:11.210Z,11.49
2022-10-14T01:37:18.279Z,11.49
2022-10-14T01:40:28.320Z,11.43
2022-10-14T01:43:34.149Z,11.48
2022-10-14T01:46:40.652Z,11.49
2022-10-14T01:49:47.775Z,11.53
2022-10-14T01:52:54.142Z,11.57
2022-10-14T01:55:58.788Z,11.57
2022-10-14T01:59:03.360Z,11.45
2022-10-14T02:02:09.033Z,11.42
2022-10-14T02:05:18.105Z,11.54
2022-10-14T02:08:28.484Z,11.56
2022-10-14T02:11:38.957Z,11.59
2022-10-14T02:14:50.281Z,11.60
2022-10-14T02:17:58.838Z,11.60
2022-10-14T02:21:08.611Z,11.58
2022-10-14T02:24:19.104Z,11.55
2022-10-14T02:27:24.395Z,11.57
2022-10-14T02:30:29.711Z,11.59
2022-10-14T02:33:38.851Z,11.62
2022-10-14T02:36:44.893Z,11.50
2022-10-14T02:39:53.453Z,11.40
2022-10-14T02:42:56.539Z,11.44
2022-10-14T02:46:01.393Z,11.45
2022-10-14T02:49:05.819Z,11.48
2022-10-14T02:52:08.703Z,11.42
2022-10-14T02:55:11.592Z,11.40
2022-10-14T02:58:14.657Z,11.41
2022-10-14T03:01:17.568Z,11.50
2022-10-14T03:04:22.113Z,11.52
2022-10-14T03:07:27.654Z,11.44
2022-10-14T03:10:33.492Z,11.43
2022-10-14T03:13:36.523Z,11.45
2022-10-14T03:16:39.586Z,11.40
2022-10-14T03:19:44.022Z,11.45
2022-10-14T03:22:48.377Z,11.39
2022-10-14T03:25:52.179Z,11.39
2022-10-14T03:29:00.788Z,11.44
2022-10-14T03:32:26.017Z,11.51
2022-10-14T03:35:48.758Z,11.50
2022-10-14T03:38:55.423Z,11.52
2022-10-14T03:42:18.677Z,11.47
2022-10-14T03:45:24.033Z,11.50
2022-10-14T03:48:28.688Z,11.46
2022-10-14T03:51:35.262Z,11.51
2022-10-14T03:54:51.998Z,11.47
2022-10-14T03:57:55.097Z,11.47
2022-10-14T04:00:58.353Z,11.44
2022-10-14T04:04:13.173Z,11.47
2022-10-14T04:07:17.401Z,11.49
2022-10-14T04:10:27.482Z,11.54
2022-10-14T04:13:31.791Z,11.50
2022-10-14T04:16:34.989Z,11.44
2022-10-14T04:19:43.306Z,11.52
2022-10-14T04:22:48.534Z,11.52
2022-10-14T04:26:00.325Z,11.50
2022-10-14T04:29:03.679Z,11.47
2022-10-14T04:32:14.351Z,11.49
2022-10-14T04:35:17.415Z,11.49
2022-10-14T04:38:25.512Z,11.51
2022-10-14T04:41:33.528Z,11.39
2022-10-14T04:44:37.685Z,11.33
2022-10-14T04:47:44.936Z,11.40
2022-10-14T04:50:52.903Z,11.39
2022-10-14T04:54:23.376Z,11.46
2022-10-14T04:57:31.287Z,11.45
2022-10-14T05:00:34.243Z,11.32
2022-10-14T05:03:45.293Z,11.30
2022-10-14T05:06:48.430Z,11.35
2022-10-14T05:09:56.643Z,11.39
2022-10-14T05:13:13.622Z,11.21
2022-10-14T05:16:28.670Z,11.21
2022-10-14T05:19:32.229Z,11.16
2022-10-14T05:22:35.682Z,11.25
2022-10-14T05:25:41.142Z,11.32
2022-10-14T05:28:44.164Z,11.22
2022-10-14T05:31:47.208Z,11.28
2022-10-14T05:35:00.685Z,11.31
2022-10-14T05:38:12.320Z,11.21
2022-10-14T05:41:19.119Z,11.25
2022-10-14T05:44:22.056Z,11.23
2022-10-14T05:47:25.822Z,11.31
2022-10-14T05:50:34.437Z,11.34
2022-10-14T05:53:43.642Z,11.39
2022-10-14T05:56:53.103Z,11.39
2022-10-14T05:59:56.398Z,11.50
2022-10-14T06:02:59.576Z,11.54
2022-10-14T06:06:03.314Z,11.54
2022-10-14T06:09:11.066Z,11.55
2022-10-14T06:12:15.702Z,11.53
2022-10-14T06:15:19.106Z,11.44
2022-10-14T06:18:22.208Z,11.55
2022-10-14T06:21:25.133Z,11.43
2022-10-14T06:24:28.020Z,11.39
2022-10-14T06:27:32.387Z,11.52
2022-10-14T06:30:35.329Z,11.53
2022-10-14T06:33:38.168Z,11.55
2022-10-14T06:36:41.170Z,11.62
2022-10-14T06:39:45.134Z,11.72
2022-10-14T06:42:49.552Z,11.71
2022-10-14T06:45:53.376Z,11.87
2022-10-14T06:48:56.281Z,11.88
2022-10-14T06:51:59.219Z,11.89
2022-10-14T06:55:02.145Z,11.81
2022-10-14T06:58:06.414Z,11.88
2022-10-14T07:01:09.707Z,12.00
2022-10-14T07:04:12.578Z,11.95
2022-10-14T07:07:15.448Z,11.99
2022-10-14T07:10:18.515Z,11.92
2022-10-14T07:13:22.753Z,11.96
2022-10-14T07:16:25.774Z,11.97
2022-10-14T07:19:28.683Z,11.91
2022-10-14T07:22:33.987Z,11.85
2022-10-14T07:25:40.620Z,11.89
2022-10-14T07:28:44.942Z,11.93
2022-10-14T07:31:47.927Z,11.91
2022-10-14T07:34:50.916Z,11.95
2022-10-14T07:37:54.342Z,11.93
2022-10-14T07:40:59.300Z,11.92
2022-10-14T07:44:06.453Z,12.02
2022-10-14T07:47:09.340Z,12.02
2022-10-14T07:50:12.595Z,12.00
2022-10-14T07:53:15.470Z,12.05
2022-10-14T07:56:18.360Z,12.12
2022-10-14T07:59:22.743Z,12.13
2022-10-14T08:02:25.689Z,12.12
2022-10-14T08:05:44.352Z,12.24
2022-10-14T08:08:47.405Z,12.26
2022-10-14T08:11:50.528Z,12.31
2022-10-14T08:14:58.020Z,12.32
2022-10-14T08:18:00.910Z,12.33
2022-10-14T08:21:03.776Z,12.42
2022-10-14T08:24:07.346Z,12.52
2022-10-14T08:27:10.566Z,12.58
2022-10-14T08:30:14.752Z,12.63
2022-10-14T08:33:17.592Z,12.72
2022-10-14T08:36:21.567Z,12.81
2022-10-14T08:39:24.558Z,12.97
2022-10-14T08:42:40.992Z,13.04
2022-10-14T08:45:50.965Z,13.10
2022-10-14T08:49:03.411Z,13.14
2022-10-14T08:52:11.824Z,13.22
2022-10-14T08:55:33.461Z,13.29
2022-10-14T08:58:39.870Z,13.31
2022-10-14T09:01:53.251Z,13.32
2022-10-14T09:04:56.666Z,13.33
2022-10-14T09:08:00.642Z,13.34
2022-10-14T09:11:03.849Z,13.44
2022-10-14T09:14:10.552Z,13.43
2022-10-14T09:17:21.173Z,13.45
2022-10-14T09:20:25.755Z,13.60
2022-10-14T09:23:29.479Z,13.64
2022-10-14T09:26:40.789Z,13.70
2022-10-14T09:29:47.795Z,13.92
2022-10-14T09:32:53.908Z,14.03
2022-10-14T09:39:05.329Z,13.99
2022-10-14T09:42:16.645Z,13.92
2022-10-14T09:45:22.618Z,13.83
2022-10-14T09:48:33.976Z,13.79
2022-10-14T09:51:36.907Z,13.80
2022-10-14T09:54:39.870Z,13.82
2022-10-14T09:57:42.787Z,13.76
2022-10-14T10:00:47.198Z,13.85
2022-10-14T10:03:53.597Z,13.87
2022-10-14T10:06:56.910Z,13.96
2022-10-14T10:10:01.428Z,14.06
2022-10-14T10:13:04.564Z,14.20
2022-10-14T10:16:18.056Z,14.37
2022-10-14T10:19:28.629Z,14.33
2022-10-14T10:22:36.705Z,14.29
2022-10-14T10:25:39.631Z,14.26
2022-10-14T10:28:46.951Z,14.23
2022-10-14T10:32:14.351Z,14.30
2022-10-14T10:35:23.590Z,14.38
2022-10-14T10:38:31.865Z,14.35
2022-10-14T10:41:49.239Z,14.39
2022-10-14T10:45:16.385Z,14.45
2022-10-14T10:48:27.512Z,14.49
2022-10-14T10:51:39.513Z,14.51
2022-10-14T10:54:53.348Z,14.51
2022-10-14T10:58:08.988Z,14.67
2022-10-14T11:01:26.287Z,14.69
2022-10-14T11:04:33.941Z,14.62
2022-10-14T11:08:05.609Z,14.54
2022-10-14T11:11:40.303Z,14.59
2022-10-14T11:15:11.611Z,14.69
2022-10-14T11:18:24.411Z,14.81
2022-10-14T11:21:35.136Z,14.76
2022-10-14T11:24:48.236Z,14.77
2022-10-14T11:27:58.804Z,14.80
2022-10-14T11:31:09.245Z,14.77
2022-10-14T11:34:34.741Z,14.78
2022-10-14T11:37:48.033Z,14.75
2022-10-14T11:41:01.539Z,14.77
2022-10-14T11:44:15.188Z,14.79
2022-10-14T11:47:25.759Z,14.78
2022-10-14T11:50:34.343Z,14.84
2022-10-14T11:53:50.287Z,14.89
2022-10-14T11:57:00.713Z,14.94
2022-10-14T12:00:41.347Z,15.06
2022-10-14T12:03:53.063Z,15.12
2022-10-14T12:07:01.891Z,15.20
2022-10-14T12:10:14.965Z,15.21
2022-10-14T12:13:24.003Z,15.29
2022-10-14T12:16:27.807Z,15.39
2022-10-14T12:19:31.675Z,15.46
2022-10-14T12:22:34.993Z,15.39
2022-10-14T12:25:48.170Z,15.46
2022-10-14T12:28:54.956Z,15.54
2022-10-14T12:32:20.939Z,15.60
2022-10-14T12:35:47.910Z,15.58
2022-10-14T12:39:31.125Z,15.64
2022-10-14T12:42:37.813Z,15.69
2022-10-14T12:45:51.986Z,15.81
2022-10-14T12:48:55.327Z,15.78
2022-10-14T12:52:02.195Z,15.79
2022-10-14T12:55:15.920Z,15.81
2022-10-14T12:58:31.208Z,15.89
2022-10-14T13:01:36.905Z,15.95
2022-10-14T13:04:48.864Z,16.00
2022-10-14T13:08:12.474Z,15.97
2022-10-14T13:11:18.166Z,15.95
2022-10-14T13:14:27.270Z,15.92
2022-10-14T13:17:46.292Z,16.03
2022-10-14T13:20:53.945Z,16.06
2022-10-14T13:23:58.518Z,16.14
2022-10-14T13:27:14.060Z,16.14
2022-10-14T13:30:21.935Z,16.21
2022-10-14T13:33:35.375Z,16.17
2022-10-14T13:36:51.692Z,16.23
2022-10-14T13:39:55.214Z,16.26
2022-10-14T13:43:00.522Z,16.20
2022-10-14T13:46:08.320Z,16.23
2022-10-14T13:49:19.671Z,16.34
2022-10-14T13:52:26.814Z,16.45
2022-10-14T13:55:30.334Z,16.45
2022-10-14T14:01:39.949Z,16.21
2022-10-14T14:04:51.839Z,16.20
2022-10-14T14:11:21.925Z,16.34
2022-10-14T14:14:30.217Z,16.24
2022-10-14T14:17:35.783Z,16.22
2022-10-14T14:20:40.019Z,16.15
2022-10-14T14:23:51.253Z,16.09
2022-10-14T14:26:56.190Z,16.00
2022-10-14T14:30:00.471Z,14.96
2022-10-14T14:33:06.104Z,14.66
2022-10-14T14:36:27.286Z,14.88
2022-10-14T14:39:37.136Z,15.03
2022-10-14T14:42:41.676Z,15.12
2022-10-14T14:45:46.777Z,15.23
2022-10-14T14:48:55.144Z,15.34
2022-10-14T14:52:00.420Z,15.41
2022-10-14T14:55:03.276Z,15.36
2022-10-14T14:58:13.175Z,15.36
2022-10-14T15:01:21.412Z,15.34
2022-10-14T15:04:29.798Z,15.31
2022-10-14T15:07:35.114Z,15.32
2022-10-14T15:10:38.038Z,15.35
2022-10-14T15:13:49.086Z,15.34
2022-10-14T15:16:54.305Z,15.34
2022-10-14T15:19:57.940Z,15.35
2022-10-14T15:23:03.447Z,15.38
2022-10-14T15:26:06.851Z,15.33
2022-10-14T15:29:18.683Z,15.29
2022-10-14T15:32:21.905Z,15.29
2022-10-14T15:35:25.757Z,15.25
2022-10-14T15:41:34.781Z,15.22
2022-10-14T15:44:37.418Z,15.16
2022-10-14T15:47:40.221Z,15.15
2022-10-14T15:50:44.916Z,15.10
2022-10-14T15:53:49.082Z,15.10
2022-10-14T15:56:51.813Z,15.05
2022-10-14T15:59:54.643Z,15.01
2022-10-14T16:03:01.991Z,14.97
2022-10-14T16:06:05.014Z,14.93
2022-10-14T16:09:09.325Z,14.91
2022-10-14T16:12:13.869Z,14.88
2022-10-14T16:15:20.696Z,14.85
2022-10-14T16:18:24.643Z,14.80
2022-10-14T16:21:31.468Z,14.75
2022-10-14T16:24:35.630Z,14.75
2022-10-14T16:27:41.951Z,14.74
2022-10-14T16:30:48.634Z,14.72
2022-10-14T16:33:51.655Z,14.65
2022-10-14T16:36:55.574Z,14.64
2022-10-14T16:39:59.627Z,14.53
2022-10-14T16:43:02.666Z,14.48
2022-10-14T16:46:06.843Z,14.43
2022-10-14T16:49:10.464Z,14.43
2022-10-14T16:52:13.646Z,14.39
2022-10-14T16:55:18.263Z,14.37
2022-10-14T16:58:21.942Z,14.36
2022-10-14T17:01:25.114Z,14.35
2022-10-14T17:04:27.871Z,14.34
2022-10-14T17:07:33.939Z,14.35
2022-10-14T17:10:39.332Z,14.30
2022-10-14T17:13:42.082Z,14.31
2022-10-14T17:16:46.198Z,14.34
2022-10-14T17:19:50.761Z,14.30
2022-10-14T17:22:53.572Z,14.29
2022-10-14T17:25:57.671Z,14.29
2022-10-14T17:29:00.538Z,14.26
2022-10-14T17:32:03.258Z,14.23
2022-10-14T17:35:07.543Z,14.28
2022-10-14T17:38:11.900Z,14.23
2022-10-14T17:41:16.277Z,14.21
2022-10-14T17:44:19.084Z,14.21
2022-10-14T17:47:24.767Z,14.19
2022-10-14T17:50:28.045Z,14.19
2022-10-14T17:53:31.151Z,14.13
2022-10-14T17:56:36.253Z,14.11
2022-10-14T17:59:39.135Z,14.11
2022-10-14T18:02:41.915Z,14.09
2022-10-14T18:05:48.147Z,14.09
2022-10-14T18:08:52.885Z,14.09
2022-10-14T18:12:13.093Z,14.13
2022-10-14T18:15:16.034Z,14.12
2022-10-14T18:18:18.822Z,14.04
2022-10-14T18:21:21.741Z,14.01
2022-10-14T18:24:24.514Z,13.98
2022-10-14T18:27:28.558Z,13.99
2022-10-14T18:30:31.201Z,13.96
2022-10-14T18:33:35.152Z,13.97
2022-10-14T18:36:38.294Z,13.92
2022-10-14T18:39:41.053Z,13.93
2022-10-14T18:42:45.213Z,13.93
2022-10-14T18:45:47.958Z,13.92
2022-10-14T18:48:51.988Z,13.90
2022-10-14T18:51:55.453Z,13.90
2022-10-14T18:54:59.010Z,13.87
2022-10-14T18:58:03.173Z,13.88
2022-10-14T19:01:06.250Z,13.86
2022-10-14T19:04:10.606Z,13.82
2022-10-14T19:07:13.377Z,13.84
2022-10-14T19:10:16.205Z,13.83
2022-10-14T19:13:20.299Z,13.83
2022-10-14T19:16:24.238Z,13.84
2022-10-14T19:19:27.095Z,13.83
2022-10-14T19:22:29.848Z,13.82
2022-10-14T19:25:33.167Z,13.82
2022-10-14T19:28:37.359Z,13.79
2022-10-14T19:31:40.960Z,13.76
2022-10-14T19:34:47.178Z,13.76
2022-10-14T19:37:50.092Z,13.75
2022-10-14T19:40:52.746Z,13.74
2022-10-14T19:43:57.566Z,13.74
2022-10-14T19:47:00.226Z,13.76
2022-10-14T19:50:02.929Z,13.81
2022-10-14T19:53:05.636Z,13.78
2022-10-14T19:56:09.384Z,13.83
2022-10-14T19:59:14.129Z,13.86
2022-10-14T20:02:16.927Z,13.82
2022-10-14T20:05:19.615Z,13.84
2022-10-14T20:08:22.493Z,13.88
2022-10-14T20:11:25.305Z,13.88
2022-10-14T20:14:30.500Z,13.92
2022-10-14T20:17:33.426Z,13.90
2022-10-14T20:20:39.700Z,13.91
2022-10-14T20:23:42.479Z,13.95
2022-10-14T20:26:45.245Z,13.92
2022-10-14T20:29:49.310Z,13.88
2022-10-14T20:32:53.595Z,13.83
2022-10-14T20:36:02.596Z,13.89
2022-10-14T20:39:05.421Z,13.90
2022-10-14T20:42:08.552Z,13.87
2022-10-14T20:45:12.734Z,13.83
2022-10-14T20:48:15.395Z,13.81
2022-10-14T20:51:19.615Z,13.87
2022-10-14T20:54:22.425Z,13.89
2022-10-14T20:57:25.306Z,13.90
2022-10-14T21:00:29.688Z,13.93
2022-10-14T21:03:32.449Z,13.93
2022-10-14T21:06:35.698Z,13.91
2022-10-14T21:09:38.403Z,13.88
2022-10-14T21:12:43.136Z,13.86
2022-10-14T21:15:49.511Z,13.87
2022-10-14T21:18:55.334Z,13.89
2022-10-14T21:22:00.418Z,13.87
2022-10-14T21:25:03.350Z,13.82
2022-10-14T21:28:06.170Z,13.85
2022-10-14T21:31:12.162Z,13.92
2022-10-14T21:34:16.712Z,13.91
2022-10-14T21:37:20.433Z,13.95
2022-10-14T21:40:23.100Z,13.82
2022-10-14T21:43:25.747Z,13.86
2022-10-14T21:46:29.852Z,13.83
2022-10-14T21:49:32.552Z,13.90
2022-10-14T21:52:35.255Z,13.83
2022-10-14T21:55:37.897Z,13.79
2022-10-14T21:58:40.914Z,13.80
2022-10-14T22:01:44.982Z,13.74
2022-10-14T22:04:47.715Z,13.77
2022-10-14T22:07:50.373Z,13.71
2022-10-14T22:10:53.075Z,13.69
2022-10-14T22:13:56.437Z,13.67
2022-10-14T22:17:00.489Z,13.67
2022-10-14T22:20:03.269Z,13.63
2022-10-14T22:23:05.926Z,13.55
2022-10-14T22:26:09.525Z,13.62
2022-10-14T22:29:13.739Z,13.60
2022-10-14T22:32:17.767Z,13.54
2022-10-14T22:35:20.470Z,13.57
2022-10-14T22:38:23.289Z,13.55
2022-10-14T22:41:28.868Z,13.50
2022-10-14T22:44:33.746Z,13.55
2022-10-14T22:47:37.969Z,13.56
2022-10-14T22:50:40.699Z,13.54
2022-10-14T22:53:44.495Z,13.55
2022-10-14T22:56:47.179Z,13.50
2022-10-14T22:59:49.953Z,13.52
2022-10-14T23:02:54.166Z,13.48
2022-10-14T23:06:00.736Z,13.48
2022-10-14T23:09:03.414Z,13.51
2022-10-14T23:12:06.594Z,13.53
2022-10-14T23:15:09.918Z,13.51
2022-10-14T23:18:13.911Z,13.53
2022-10-14T23:21:17.937Z,13.55
2022-10-14T23:24:20.601Z,13.60
2022-10-14T23:27:23.241Z,13.58
2022-10-14T23:30:25.952Z,13.58
2022-10-14T23:33:30.526Z,13.58
2022-10-14T23:36:33.545Z,13.57
2022-10-14T23:39:36.196Z,13.60
2022-10-14T23:42:38.866Z,13.64
2022-10-14T23:45:41.618Z,13.54
2022-10-14T23:48:51.528Z,13.59
2022-10-14T23:52:03.710Z,13.60
2022-10-14T23:55:06.968Z,13.57
2022-10-14T23:58:09.920Z,13.59
